sensor_id;sensor_type;location;lat;lon;timestamp;P1;durP1;ratioP1;P2;durP2;ratioP2
41629;SDS011;27322;49.488;8.480;2023-07-31T00:00:14;3.80;;;1.13;;
41629;SDS011;27322;49.488;8.480;2023-07-31T00:02:39;4.30;;;1.00;;
41629;SDS011;27322;49.488;8.480;2023-07-31T00:05:06;2.75;;;0.90;;
41629;SDS011;27322;49.488;8.480;2023-07-31T00:07:33;3.75;;;0.95;;
41629;SDS011;27322;49.488;8.480;2023-07-31T00:09:58;3.88;;;0.98;;
41629;SDS011;27322;49.488;8.480;2023-07-31T00:12:24;5.35;;;1.10;;
41629;SDS011;27322;49.488;8.480;2023-07-31T00:14:50;3.28;;;1.00;;
41629;SDS011;27322;49.488;8.480;2023-07-31T00:17:16;5.15;;;1.23;;
41629;SDS011;27322;49.488;8.480;2023-07-31T00:19:42;5.03;;;1.10;;
41629;SDS011;27322;49.488;8.480;2023-07-31T00:22:07;3.33;;;0.82;;
41629;SDS011;27322;49.488;8.480;2023-07-31T00:24:33;4.82;;;1.08;;
41629;SDS011;27322;49.488;8.480;2023-07-31T00:26:58;6.75;;;1.40;;
41629;SDS011;27322;49.488;8.480;2023-07-31T00:29:24;4.63;;;1.20;;
41629;SDS011;27322;49.488;8.480;2023-07-31T00:31:50;3.67;;;1.10;;
41629;SDS011;27322;49.488;8.480;2023-07-31T00:34:15;4.10;;;0.98;;
41629;SDS011;27322;49.488;8.480;2023-07-31T00:36:41;2.75;;;1.00;;
41629;SDS011;27322;49.488;8.480;2023-07-31T00:39:06;4.97;;;1.13;;
41629;SDS011;27322;49.488;8.480;2023-07-31T00:41:32;5.10;;;1.20;;
41629;SDS011;27322;49.488;8.480;2023-07-31T00:43:57;4.38;;;1.00;;
41629;SDS011;27322;49.488;8.480;2023-07-31T00:46:23;3.17;;;1.00;;
41629;SDS011;27322;49.488;8.480;2023-07-31T00:48:49;4.45;;;1.20;;
41629;SDS011;27322;49.488;8.480;2023-07-31T00:51:14;3.63;;;1.05;;
41629;SDS011;27322;49.488;8.480;2023-07-31T00:53:41;4.22;;;0.95;;
41629;SDS011;27322;49.488;8.480;2023-07-31T00:56:07;4.10;;;1.17;;
41629;SDS011;27322;49.488;8.480;2023-07-31T00:58:33;3.25;;;1.10;;
41629;SDS011;27322;49.488;8.480;2023-07-31T01:00:59;7.15;;;1.25;;
41629;SDS011;27322;49.488;8.480;2023-07-31T01:03:25;5.57;;;1.20;;
41629;SDS011;27322;49.488;8.480;2023-07-31T01:06:01;5.53;;;1.10;;
41629;SDS011;27322;49.488;8.480;2023-07-31T01:11:43;5.60;;;1.40;;
41629;SDS011;27322;49.488;8.480;2023-07-31T01:14:31;5.10;;;1.10;;
41629;SDS011;27322;49.488;8.480;2023-07-31T01:16:56;4.25;;;1.05;;
41629;SDS011;27322;49.488;8.480;2023-07-31T01:19:23;4.25;;;1.00;;
41629;SDS011;27322;49.488;8.480;2023-07-31T01:22:09;5.03;;;1.20;;
41629;SDS011;27322;49.488;8.480;2023-07-31T01:24:41;4.38;;;1.00;;
41629;SDS011;27322;49.488;8.480;2023-07-31T01:27:34;4.07;;;1.27;;
41629;SDS011;27322;49.488;8.480;2023-07-31T01:32:35;3.65;;;1.20;;
41629;SDS011;27322;49.488;8.480;2023-07-31T01:35:03;3.72;;;1.20;;
41629;SDS011;27322;49.488;8.480;2023-07-31T01:37:29;3.75;;;1.00;;
41629;SDS011;27322;49.488;8.480;2023-07-31T01:39:55;4.50;;;1.42;;
41629;SDS011;27322;49.488;8.480;2023-07-31T01:42:21;5.25;;;1.10;;
41629;SDS011;27322;49.488;8.480;2023-07-31T01:44:46;3.70;;;1.10;;
41629;SDS011;27322;49.488;8.480;2023-07-31T01:47:12;4.60;;;1.17;;
41629;SDS011;27322;49.488;8.480;2023-07-31T01:49:37;3.67;;;1.10;;
41629;SDS011;27322;49.488;8.480;2023-07-31T01:52:03;4.82;;;1.10;;
41629;SDS011;27322;49.488;8.480;2023-07-31T01:54:29;4.60;;;1.23;;
41629;SDS011;27322;49.488;8.480;2023-07-31T01:56:58;5.70;;;1.10;;
41629;SDS011;27322;49.488;8.480;2023-07-31T01:59:24;3.92;;;1.10;;
41629;SDS011;27322;49.488;8.480;2023-07-31T02:01:50;4.38;;;1.02;;
41629;SDS011;27322;49.488;8.480;2023-07-31T02:04:15;6.78;;;1.13;;
41629;SDS011;27322;49.488;8.480;2023-07-31T02:06:41;4.07;;;1.10;;
41629;SDS011;27322;49.488;8.480;2023-07-31T02:09:06;4.47;;;1.13;;
41629;SDS011;27322;49.488;8.480;2023-07-31T02:11:32;3.40;;;1.10;;
41629;SDS011;27322;49.488;8.480;2023-07-31T02:13:57;8.55;;;1.50;;
41629;SDS011;27322;49.488;8.480;2023-07-31T02:16:23;3.83;;;1.25;;
41629;SDS011;27322;49.488;8.480;2023-07-31T02:18:49;6.38;;;1.40;;
41629;SDS011;27322;49.488;8.480;2023-07-31T02:21:17;3.67;;;1.25;;
41629;SDS011;27322;49.488;8.480;2023-07-31T02:23:43;4.72;;;1.42;;
41629;SDS011;27322;49.488;8.480;2023-07-31T02:26:08;4.75;;;1.38;;
41629;SDS011;27322;49.488;8.480;2023-07-31T02:28:34;4.97;;;1.45;;
41629;SDS011;27322;49.488;8.480;2023-07-31T02:30:59;3.42;;;1.20;;
41629;SDS011;27322;49.488;8.480;2023-07-31T02:33:25;6.28;;;1.30;;
41629;SDS011;27322;49.488;8.480;2023-07-31T02:35:50;3.63;;;1.20;;
41629;SDS011;27322;49.488;8.480;2023-07-31T02:38:16;3.60;;;1.10;;
41629;SDS011;27322;49.488;8.480;2023-07-31T02:40:41;5.03;;;1.50;;
41629;SDS011;27322;49.488;8.480;2023-07-31T02:43:07;6.30;;;1.42;;
41629;SDS011;27322;49.488;8.480;2023-07-31T02:45:33;3.38;;;1.25;;
41629;SDS011;27322;49.488;8.480;2023-07-31T02:47:59;5.10;;;1.30;;
41629;SDS011;27322;49.488;8.480;2023-07-31T02:50:25;5.07;;;1.30;;
41629;SDS011;27322;49.488;8.480;2023-07-31T02:52:52;3.72;;;1.30;;
41629;SDS011;27322;49.488;8.480;2023-07-31T02:55:18;3.13;;;1.10;;
41629;SDS011;27322;49.488;8.480;2023-07-31T02:57:43;4.82;;;1.30;;
41629;SDS011;27322;49.488;8.480;2023-07-31T03:00:09;4.55;;;1.30;;
41629;SDS011;27322;49.488;8.480;2023-07-31T03:02:35;5.60;;;1.52;;
41629;SDS011;27322;49.488;8.480;2023-07-31T03:05:00;6.60;;;1.17;;
41629;SDS011;27322;49.488;8.480;2023-07-31T03:07:26;4.85;;;1.40;;
41629;SDS011;27322;49.488;8.480;2023-07-31T03:09:52;4.95;;;1.38;;
41629;SDS011;27322;49.488;8.480;2023-07-31T03:12:17;6.45;;;1.30;;
41629;SDS011;27322;49.488;8.480;2023-07-31T03:14:44;5.88;;;1.33;;
41629;SDS011;27322;49.488;8.480;2023-07-31T03:17:10;4.80;;;1.30;;
41629;SDS011;27322;49.488;8.480;2023-07-31T03:19:36;6.28;;;1.58;;
41629;SDS011;27322;49.488;8.480;2023-07-31T03:22:02;5.35;;;1.50;;
41629;SDS011;27322;49.488;8.480;2023-07-31T03:24:28;4.25;;;1.48;;
41629;SDS011;27322;49.488;8.480;2023-07-31T03:26:54;5.00;;;1.23;;
41629;SDS011;27322;49.488;8.480;2023-07-31T03:29:19;4.65;;;1.35;;
41629;SDS011;27322;49.488;8.480;2023-07-31T03:31:45;8.55;;;1.38;;
41629;SDS011;27322;49.488;8.480;2023-07-31T03:34:11;5.18;;;1.42;;
41629;SDS011;27322;49.488;8.480;2023-07-31T03:36:36;7.65;;;2.10;;
41629;SDS011;27322;49.488;8.480;2023-07-31T03:39:02;8.93;;;1.50;;
41629;SDS011;27322;49.488;8.480;2023-07-31T03:41:28;5.82;;;1.30;;
41629;SDS011;27322;49.488;8.480;2023-07-31T03:43:54;5.10;;;1.38;;
41629;SDS011;27322;49.488;8.480;2023-07-31T03:46:22;4.70;;;1.25;;
41629;SDS011;27322;49.488;8.480;2023-07-31T03:48:49;5.72;;;1.77;;
41629;SDS011;27322;49.488;8.480;2023-07-31T03:51:15;4.43;;;1.48;;
41629;SDS011;27322;49.488;8.480;2023-07-31T03:53:40;4.47;;;1.33;;
41629;SDS011;27322;49.488;8.480;2023-07-31T03:56:06;6.22;;;1.35;;
41629;SDS011;27322;49.488;8.480;2023-07-31T03:58:31;4.47;;;1.52;;
41629;SDS011;27322;49.488;8.480;2023-07-31T04:00:57;4.03;;;1.38;;
41629;SDS011;27322;49.488;8.480;2023-07-31T04:03:23;4.50;;;1.45;;
41629;SDS011;27322;49.488;8.480;2023-07-31T04:05:48;5.20;;;1.38;;
41629;SDS011;27322;49.488;8.480;2023-07-31T04:08:14;5.15;;;1.40;;
41629;SDS011;27322;49.488;8.480;2023-07-31T04:10:39;5.78;;;1.38;;
41629;SDS011;27322;49.488;8.480;2023-07-31T04:13:05;8.38;;;1.70;;
41629;SDS011;27322;49.488;8.480;2023-07-31T04:15:30;5.18;;;1.55;;
41629;SDS011;27322;49.488;8.480;2023-07-31T04:17:56;5.60;;;1.65;;
41629;SDS011;27322;49.488;8.480;2023-07-31T04:20:21;6.28;;;1.50;;
41629;SDS011;27322;49.488;8.480;2023-07-31T04:22:47;5.75;;;1.30;;
41629;SDS011;27322;49.488;8.480;2023-07-31T04:25:13;5.80;;;1.48;;
41629;SDS011;27322;49.488;8.480;2023-07-31T04:27:39;5.85;;;1.35;;
41629;SDS011;27322;49.488;8.480;2023-07-31T04:30:05;4.57;;;1.42;;
41629;SDS011;27322;49.488;8.480;2023-07-31T04:32:31;5.93;;;1.60;;
41629;SDS011;27322;49.488;8.480;2023-07-31T04:34:57;4.45;;;1.50;;
41629;SDS011;27322;49.488;8.480;2023-07-31T04:37:22;4.45;;;1.48;;
41629;SDS011;27322;49.488;8.480;2023-07-31T04:39:48;4.15;;;1.55;;
41629;SDS011;27322;49.488;8.480;2023-07-31T04:42:13;4.07;;;1.50;;
41629;SDS011;27322;49.488;8.480;2023-07-31T04:44:39;6.05;;;1.52;;
41629;SDS011;27322;49.488;8.480;2023-07-31T04:47:05;4.85;;;1.60;;
41629;SDS011;27322;49.488;8.480;2023-07-31T04:49:31;4.85;;;1.40;;
41629;SDS011;27322;49.488;8.480;2023-07-31T04:51:57;4.72;;;1.27;;
41629;SDS011;27322;49.488;8.480;2023-07-31T04:54:22;4.57;;;1.45;;
41629;SDS011;27322;49.488;8.480;2023-07-31T04:56:48;5.03;;;1.40;;
41629;SDS011;27322;49.488;8.480;2023-07-31T04:59:14;6.85;;;1.77;;
41629;SDS011;27322;49.488;8.480;2023-07-31T05:01:39;5.40;;;1.30;;
41629;SDS011;27322;49.488;8.480;2023-07-31T05:04:05;5.07;;;1.55;;
41629;SDS011;27322;49.488;8.480;2023-07-31T05:06:30;4.78;;;1.50;;
41629;SDS011;27322;49.488;8.480;2023-07-31T05:08:56;4.57;;;1.30;;
41629;SDS011;27322;49.488;8.480;2023-07-31T05:11:21;5.25;;;1.23;;
41629;SDS011;27322;49.488;8.480;2023-07-31T05:13:47;5.00;;;1.48;;
41629;SDS011;27322;49.488;8.480;2023-07-31T05:16:13;4.25;;;1.17;;
41629;SDS011;27322;49.488;8.480;2023-07-31T05:18:38;3.58;;;1.35;;
41629;SDS011;27322;49.488;8.480;2023-07-31T05:21:04;5.32;;;1.75;;
41629;SDS011;27322;49.488;8.480;2023-07-31T05:23:29;5.20;;;1.52;;
41629;SDS011;27322;49.488;8.480;2023-07-31T05:26:02;6.03;;;1.70;;
41629;SDS011;27322;49.488;8.480;2023-07-31T05:28:29;3.50;;;1.52;;
41629;SDS011;27322;49.488;8.480;2023-07-31T05:31:04;7.70;;;1.70;;
41629;SDS011;27322;49.488;8.480;2023-07-31T05:33:30;5.90;;;1.40;;
41629;SDS011;27322;49.488;8.480;2023-07-31T05:35:56;4.90;;;1.58;;
41629;SDS011;27322;49.488;8.480;2023-07-31T05:38:21;3.85;;;1.45;;
41629;SDS011;27322;49.488;8.480;2023-07-31T05:40:47;5.18;;;1.55;;
41629;SDS011;27322;49.488;8.480;2023-07-31T05:43:13;7.22;;;1.48;;
41629;SDS011;27322;49.488;8.480;2023-07-31T05:45:39;5.15;;;1.52;;
41629;SDS011;27322;49.488;8.480;2023-07-31T05:48:06;5.68;;;1.50;;
41629;SDS011;27322;49.488;8.480;2023-07-31T05:50:32;4.68;;;1.52;;
41629;SDS011;27322;49.488;8.480;2023-07-31T05:52:58;4.00;;;1.40;;
41629;SDS011;27322;49.488;8.480;2023-07-31T05:55:24;5.55;;;1.88;;
41629;SDS011;27322;49.488;8.480;2023-07-31T05:57:51;4.80;;;1.60;;
41629;SDS011;27322;49.488;8.480;2023-07-31T06:00:17;6.13;;;1.63;;
41629;SDS011;27322;49.488;8.480;2023-07-31T06:02:43;5.43;;;1.52;;
41629;SDS011;27322;49.488;8.480;2023-07-31T06:05:09;5.47;;;1.67;;
41629;SDS011;27322;49.488;8.480;2023-07-31T06:07:35;5.95;;;1.58;;
41629;SDS011;27322;49.488;8.480;2023-07-31T06:10:00;6.90;;;1.45;;
41629;SDS011;27322;49.488;8.480;2023-07-31T06:12:29;5.50;;;1.38;;
41629;SDS011;27322;49.488;8.480;2023-07-31T06:14:56;5.40;;;1.77;;
41629;SDS011;27322;49.488;8.480;2023-07-31T06:17:21;4.13;;;1.52;;
41629;SDS011;27322;49.488;8.480;2023-07-31T06:19:47;3.88;;;1.45;;
41629;SDS011;27322;49.488;8.480;2023-07-31T06:22:13;6.85;;;1.70;;
41629;SDS011;27322;49.488;8.480;2023-07-31T06:24:38;5.00;;;1.50;;
41629;SDS011;27322;49.488;8.480;2023-07-31T06:27:04;4.75;;;1.73;;
41629;SDS011;27322;49.488;8.480;2023-07-31T06:29:31;6.40;;;1.27;;
41629;SDS011;27322;49.488;8.480;2023-07-31T06:31:56;6.22;;;1.77;;
41629;SDS011;27322;49.488;8.480;2023-07-31T06:34:22;4.80;;;1.60;;
41629;SDS011;27322;49.488;8.480;2023-07-31T06:36:48;5.70;;;1.60;;
41629;SDS011;27322;49.488;8.480;2023-07-31T06:39:13;5.00;;;1.60;;
41629;SDS011;27322;49.488;8.480;2023-07-31T06:41:39;5.85;;;1.70;;
41629;SDS011;27322;49.488;8.480;2023-07-31T06:44:04;3.55;;;1.52;;
41629;SDS011;27322;49.488;8.480;2023-07-31T06:46:30;5.43;;;1.42;;
41629;SDS011;27322;49.488;8.480;2023-07-31T06:48:55;4.82;;;1.75;;
41629;SDS011;27322;49.488;8.480;2023-07-31T06:51:21;5.72;;;1.60;;
41629;SDS011;27322;49.488;8.480;2023-07-31T06:53:47;9.35;;;1.67;;
41629;SDS011;27322;49.488;8.480;2023-07-31T06:56:12;6.70;;;1.48;;
41629;SDS011;27322;49.488;8.480;2023-07-31T06:58:38;5.43;;;1.90;;
41629;SDS011;27322;49.488;8.480;2023-07-31T07:01:04;6.78;;;1.85;;
41629;SDS011;27322;49.488;8.480;2023-07-31T07:03:30;4.97;;;1.58;;
41629;SDS011;27322;49.488;8.480;2023-07-31T07:05:56;5.25;;;1.77;;
41629;SDS011;27322;49.488;8.480;2023-07-31T07:08:21;3.78;;;1.30;;
41629;SDS011;27322;49.488;8.480;2023-07-31T07:10:47;5.10;;;1.80;;
41629;SDS011;27322;49.488;8.480;2023-07-31T07:13:13;6.15;;;1.70;;
41629;SDS011;27322;49.488;8.480;2023-07-31T07:15:38;6.13;;;1.55;;
41629;SDS011;27322;49.488;8.480;2023-07-31T07:18:04;7.50;;;1.90;;
41629;SDS011;27322;49.488;8.480;2023-07-31T07:20:30;4.45;;;1.65;;
41629;SDS011;27322;49.488;8.480;2023-07-31T07:22:55;5.50;;;1.60;;
41629;SDS011;27322;49.488;8.480;2023-07-31T07:25:21;4.55;;;1.33;;
41629;SDS011;27322;49.488;8.480;2023-07-31T07:27:47;6.65;;;1.55;;
41629;SDS011;27322;49.488;8.480;2023-07-31T07:30:12;7.68;;;1.90;;
41629;SDS011;27322;49.488;8.480;2023-07-31T07:32:39;4.22;;;1.55;;
41629;SDS011;27322;49.488;8.480;2023-07-31T07:35:05;5.03;;;1.67;;
41629;SDS011;27322;49.488;8.480;2023-07-31T07:37:31;7.22;;;1.70;;
41629;SDS011;27322;49.488;8.480;2023-07-31T07:39:57;5.28;;;1.85;;
41629;SDS011;27322;49.488;8.480;2023-07-31T07:42:22;4.50;;;1.75;;
41629;SDS011;27322;49.488;8.480;2023-07-31T07:44:48;5.55;;;2.20;;
41629;SDS011;27322;49.488;8.480;2023-07-31T07:47:14;6.38;;;2.22;;
41629;SDS011;27322;49.488;8.480;2023-07-31T07:49:39;6.65;;;1.60;;
41629;SDS011;27322;49.488;8.480;2023-07-31T07:52:05;5.45;;;1.75;;
41629;SDS011;27322;49.488;8.480;2023-07-31T07:54:31;5.40;;;1.67;;
41629;SDS011;27322;49.488;8.480;2023-07-31T07:56:57;5.03;;;1.60;;
41629;SDS011;27322;49.488;8.480;2023-07-31T07:59:23;8.10;;;3.35;;
41629;SDS011;27322;49.488;8.480;2023-07-31T08:01:48;4.78;;;1.70;;
41629;SDS011;27322;49.488;8.480;2023-07-31T08:04:14;5.22;;;1.52;;
41629;SDS011;27322;49.488;8.480;2023-07-31T08:06:40;3.95;;;1.60;;
41629;SDS011;27322;49.488;8.480;2023-07-31T08:09:05;6.53;;;1.73;;
41629;SDS011;27322;49.488;8.480;2023-07-31T08:11:34;3.53;;;1.45;;
41629;SDS011;27322;49.488;8.480;2023-07-31T08:14:00;5.40;;;1.58;;
41629;SDS011;27322;49.488;8.480;2023-07-31T08:16:26;4.82;;;1.58;;
41629;SDS011;27322;49.488;8.480;2023-07-31T08:18:51;4.30;;;1.40;;
41629;SDS011;27322;49.488;8.480;2023-07-31T08:21:17;4.78;;;1.50;;
41629;SDS011;27322;49.488;8.480;2023-07-31T08:23:43;4.90;;;1.67;;
41629;SDS011;27322;49.488;8.480;2023-07-31T08:26:14;5.63;;;1.95;;
41629;SDS011;27322;49.488;8.480;2023-07-31T08:28:43;5.38;;;2.10;;
41629;SDS011;27322;49.488;8.480;2023-07-31T08:31:09;6.80;;;1.85;;
41629;SDS011;27322;49.488;8.480;2023-07-31T08:33:35;5.25;;;1.65;;
41629;SDS011;27322;49.488;8.480;2023-07-31T08:36:01;4.55;;;1.75;;
41629;SDS011;27322;49.488;8.480;2023-07-31T08:38:27;4.38;;;1.42;;
41629;SDS011;27322;49.488;8.480;2023-07-31T08:40:57;4.53;;;1.80;;
41629;SDS011;27322;49.488;8.480;2023-07-31T08:43:26;7.35;;;1.73;;
41629;SDS011;27322;49.488;8.480;2023-07-31T08:45:52;6.13;;;1.60;;
41629;SDS011;27322;49.488;8.480;2023-07-31T08:48:18;4.57;;;1.70;;
41629;SDS011;27322;49.488;8.480;2023-07-31T08:50:45;5.93;;;1.45;;
41629;SDS011;27322;49.488;8.480;2023-07-31T08:53:11;5.55;;;1.52;;
41629;SDS011;27322;49.488;8.480;2023-07-31T08:55:37;7.90;;;1.40;;
41629;SDS011;27322;49.488;8.480;2023-07-31T08:58:03;6.35;;;1.58;;
41629;SDS011;27322;49.488;8.480;2023-07-31T09:00:30;6.18;;;1.60;;
41629;SDS011;27322;49.488;8.480;2023-07-31T09:02:59;6.72;;;1.70;;
41629;SDS011;27322;49.488;8.480;2023-07-31T09:05:28;5.28;;;1.83;;
41629;SDS011;27322;49.488;8.480;2023-07-31T09:07:56;4.38;;;1.50;;
41629;SDS011;27322;49.488;8.480;2023-07-31T09:10:22;5.47;;;1.77;;
41629;SDS011;27322;49.488;8.480;2023-07-31T09:12:48;5.18;;;1.60;;
41629;SDS011;27322;49.488;8.480;2023-07-31T09:15:15;4.30;;;1.60;;
41629;SDS011;27322;49.488;8.480;2023-07-31T09:17:41;5.05;;;1.70;;
41629;SDS011;27322;49.488;8.480;2023-07-31T09:20:17;6.95;;;2.15;;
41629;SDS011;27322;49.488;8.480;2023-07-31T09:22:45;4.60;;;1.80;;
41629;SDS011;27322;49.488;8.480;2023-07-31T09:25:26;5.78;;;1.70;;
41629;SDS011;27322;49.488;8.480;2023-07-31T09:27:57;7.28;;;2.13;;
41629;SDS011;27322;49.488;8.480;2023-07-31T09:30:24;5.10;;;1.55;;
41629;SDS011;27322;49.488;8.480;2023-07-31T09:32:51;5.70;;;1.95;;
41629;SDS011;27322;49.488;8.480;2023-07-31T09:35:28;5.30;;;1.50;;
41629;SDS011;27322;49.488;8.480;2023-07-31T09:37:58;6.47;;;1.95;;
41629;SDS011;27322;49.488;8.480;2023-07-31T09:40:44;7.65;;;1.98;;
41629;SDS011;27322;49.488;8.480;2023-07-31T09:43:17;7.53;;;2.15;;
41629;SDS011;27322;49.488;8.480;2023-07-31T09:45:44;7.57;;;1.98;;
41629;SDS011;27322;49.488;8.480;2023-07-31T09:48:11;6.53;;;1.90;;
41629;SDS011;27322;49.488;8.480;2023-07-31T09:50:38;5.70;;;1.98;;
41629;SDS011;27322;49.488;8.480;2023-07-31T09:53:05;4.72;;;1.52;;
41629;SDS011;27322;49.488;8.480;2023-07-31T09:55:31;5.90;;;1.85;;
41629;SDS011;27322;49.488;8.480;2023-07-31T09:57:57;6.53;;;2.00;;
41629;SDS011;27322;49.488;8.480;2023-07-31T10:00:23;4.30;;;1.77;;
41629;SDS011;27322;49.488;8.480;2023-07-31T10:02:53;5.88;;;1.85;;
41629;SDS011;27322;49.488;8.480;2023-07-31T10:05:23;4.25;;;1.60;;
41629;SDS011;27322;49.488;8.480;2023-07-31T10:07:53;5.78;;;1.85;;
41629;SDS011;27322;49.488;8.480;2023-07-31T10:10:21;7.38;;;1.92;;
41629;SDS011;27322;49.488;8.480;2023-07-31T10:12:47;6.38;;;2.30;;
41629;SDS011;27322;49.488;8.480;2023-07-31T10:15:14;7.00;;;2.05;;
41629;SDS011;27322;49.488;8.480;2023-07-31T10:17:40;6.75;;;1.90;;
41629;SDS011;27322;49.488;8.480;2023-07-31T10:20:07;6.65;;;2.17;;
41629;SDS011;27322;49.488;8.480;2023-07-31T10:22:33;5.95;;;1.90;;
41629;SDS011;27322;49.488;8.480;2023-07-31T10:25:00;6.25;;;2.00;;
41629;SDS011;27322;49.488;8.480;2023-07-31T10:27:26;7.20;;;2.20;;
41629;SDS011;27322;49.488;8.480;2023-07-31T10:29:54;12.80;;;2.67;;
41629;SDS011;27322;49.488;8.480;2023-07-31T10:32:20;9.10;;;2.65;;
41629;SDS011;27322;49.488;8.480;2023-07-31T10:34:47;4.97;;;1.92;;
41629;SDS011;27322;49.488;8.480;2023-07-31T10:39:57;5.13;;;2.10;;
41629;SDS011;27322;49.488;8.480;2023-07-31T10:42:30;5.30;;;2.00;;
41629;SDS011;27322;49.488;8.480;2023-07-31T10:45:00;6.93;;;1.77;;
41629;SDS011;27322;49.488;8.480;2023-07-31T10:47:28;7.20;;;2.17;;
41629;SDS011;27322;49.488;8.480;2023-07-31T10:50:10;5.43;;;1.90;;
41629;SDS011;27322;49.488;8.480;2023-07-31T10:52:46;6.10;;;2.20;;
41629;SDS011;27322;49.488;8.480;2023-07-31T10:57:51;7.30;;;2.55;;
41629;SDS011;27322;49.488;8.480;2023-07-31T11:00:30;7.07;;;2.53;;
41629;SDS011;27322;49.488;8.480;2023-07-31T11:02:56;9.48;;;2.20;;
41629;SDS011;27322;49.488;8.480;2023-07-31T11:05:32;8.32;;;2.53;;
41629;SDS011;27322;49.488;8.480;2023-07-31T11:08:10;8.15;;;2.63;;
41629;SDS011;27322;49.488;8.480;2023-07-31T11:10:36;8.50;;;2.20;;
41629;SDS011;27322;49.488;8.480;2023-07-31T11:13:03;8.82;;;2.25;;
41629;SDS011;27322;49.488;8.480;2023-07-31T11:15:29;7.32;;;2.22;;
41629;SDS011;27322;49.488;8.480;2023-07-31T11:17:55;7.25;;;2.45;;
41629;SDS011;27322;49.488;8.480;2023-07-31T11:20:23;8.60;;;2.28;;
41629;SDS011;27322;49.488;8.480;2023-07-31T11:22:49;8.68;;;2.47;;
41629;SDS011;27322;49.488;8.480;2023-07-31T11:25:15;5.95;;;2.20;;
41629;SDS011;27322;49.488;8.480;2023-07-31T11:27:41;6.45;;;1.95;;
41629;SDS011;27322;49.488;8.480;2023-07-31T11:30:08;6.65;;;2.20;;
41629;SDS011;27322;49.488;8.480;2023-07-31T11:32:37;8.40;;;1.95;;
41629;SDS011;27322;49.488;8.480;2023-07-31T11:35:03;4.90;;;1.85;;
41629;SDS011;27322;49.488;8.480;2023-07-31T11:37:40;4.75;;;1.90;;
41629;SDS011;27322;49.488;8.480;2023-07-31T11:40:07;7.40;;;2.50;;
41629;SDS011;27322;49.488;8.480;2023-07-31T11:42:34;6.32;;;2.10;;
41629;SDS011;27322;49.488;8.480;2023-07-31T11:45:04;5.57;;;1.90;;
41629;SDS011;27322;49.488;8.480;2023-07-31T11:47:31;5.63;;;1.95;;
41629;SDS011;27322;49.488;8.480;2023-07-31T11:49:59;6.97;;;2.10;;
41629;SDS011;27322;49.488;8.480;2023-07-31T11:52:26;4.38;;;1.75;;
41629;SDS011;27322;49.488;8.480;2023-07-31T11:54:56;4.75;;;2.00;;
41629;SDS011;27322;49.488;8.480;2023-07-31T11:57:22;5.80;;;1.98;;
41629;SDS011;27322;49.488;8.480;2023-07-31T11:59:49;7.40;;;2.10;;
41629;SDS011;27322;49.488;8.480;2023-07-31T12:02:16;5.47;;;2.30;;
41629;SDS011;27322;49.488;8.480;2023-07-31T12:04:43;4.65;;;1.90;;
41629;SDS011;27322;49.488;8.480;2023-07-31T12:07:08;6.38;;;2.20;;
41629;SDS011;27322;49.488;8.480;2023-07-31T12:09:34;5.50;;;1.98;;
41629;SDS011;27322;49.488;8.480;2023-07-31T12:12:00;7.05;;;1.98;;
41629;SDS011;27322;49.488;8.480;2023-07-31T12:14:28;5.70;;;2.00;;
41629;SDS011;27322;49.488;8.480;2023-07-31T12:16:58;6.53;;;2.15;;
41629;SDS011;27322;49.488;8.480;2023-07-31T12:19:28;6.63;;;2.15;;
41629;SDS011;27322;49.488;8.480;2023-07-31T12:21:55;8.63;;;2.53;;
41629;SDS011;27322;49.488;8.480;2023-07-31T12:24:21;5.80;;;2.08;;
41629;SDS011;27322;49.488;8.480;2023-07-31T12:26:47;5.57;;;1.85;;
41629;SDS011;27322;49.488;8.480;2023-07-31T12:29:13;5.65;;;2.08;;
41629;SDS011;27322;49.488;8.480;2023-07-31T12:31:40;4.80;;;1.92;;
41629;SDS011;27322;49.488;8.480;2023-07-31T12:34:15;6.45;;;2.40;;
41629;SDS011;27322;49.488;8.480;2023-07-31T12:36:42;5.05;;;2.15;;
41629;SDS011;27322;49.488;8.480;2023-07-31T12:39:08;7.25;;;2.20;;
41629;SDS011;27322;49.488;8.480;2023-07-31T12:41:34;6.53;;;2.65;;
41629;SDS011;27322;49.488;8.480;2023-07-31T12:44:00;7.32;;;2.50;;
41629;SDS011;27322;49.488;8.480;2023-07-31T12:46:26;6.40;;;2.45;;
41629;SDS011;27322;49.488;8.480;2023-07-31T12:48:51;7.07;;;2.42;;
41629;SDS011;27322;49.488;8.480;2023-07-31T12:51:17;9.27;;;2.47;;
41629;SDS011;27322;49.488;8.480;2023-07-31T12:53:42;6.22;;;2.05;;
41629;SDS011;27322;49.488;8.480;2023-07-31T12:56:08;4.70;;;1.85;;
41629;SDS011;27322;49.488;8.480;2023-07-31T12:58:34;5.45;;;1.85;;
41629;SDS011;27322;49.488;8.480;2023-07-31T13:00:59;7.78;;;2.22;;
41629;SDS011;27322;49.488;8.480;2023-07-31T13:03:26;7.25;;;2.15;;
41629;SDS011;27322;49.488;8.480;2023-07-31T13:05:51;5.75;;;2.22;;
41629;SDS011;27322;49.488;8.480;2023-07-31T13:08:17;6.45;;;1.90;;
41629;SDS011;27322;49.488;8.480;2023-07-31T13:10:43;5.32;;;2.10;;
41629;SDS011;27322;49.488;8.480;2023-07-31T13:13:09;5.10;;;2.08;;
41629;SDS011;27322;49.488;8.480;2023-07-31T13:15:35;7.55;;;2.13;;
41629;SDS011;27322;49.488;8.480;2023-07-31T13:18:00;6.43;;;2.17;;
41629;SDS011;27322;49.488;8.480;2023-07-31T13:20:26;5.57;;;1.80;;
41629;SDS011;27322;49.488;8.480;2023-07-31T13:22:52;5.80;;;2.17;;
41629;SDS011;27322;49.488;8.480;2023-07-31T13:25:18;5.65;;;1.88;;
41629;SDS011;27322;49.488;8.480;2023-07-31T13:27:43;4.30;;;1.73;;
41629;SDS011;27322;49.488;8.480;2023-07-31T13:30:09;9.07;;;2.35;;
41629;SDS011;27322;49.488;8.480;2023-07-31T13:32:35;4.93;;;1.80;;
41629;SDS011;27322;49.488;8.480;2023-07-31T13:35:05;6.65;;;1.83;;
41629;SDS011;27322;49.488;8.480;2023-07-31T13:37:31;7.80;;;2.00;;
41629;SDS011;27322;49.488;8.480;2023-07-31T13:39:56;6.95;;;2.33;;
41629;SDS011;27322;49.488;8.480;2023-07-31T13:42:22;6.53;;;2.00;;
41629;SDS011;27322;49.488;8.480;2023-07-31T13:44:48;5.05;;;1.90;;
41629;SDS011;27322;49.488;8.480;2023-07-31T13:47:13;5.18;;;1.90;;
41629;SDS011;27322;49.488;8.480;2023-07-31T13:49:39;5.70;;;2.10;;
41629;SDS011;27322;49.488;8.480;2023-07-31T13:52:06;5.03;;;1.88;;
41629;SDS011;27322;49.488;8.480;2023-07-31T13:54:32;9.02;;;2.70;;
41629;SDS011;27322;49.488;8.480;2023-07-31T13:56:58;8.65;;;2.13;;
41629;SDS011;27322;49.488;8.480;2023-07-31T13:59:23;6.18;;;2.35;;
41629;SDS011;27322;49.488;8.480;2023-07-31T14:01:49;5.43;;;2.33;;
41629;SDS011;27322;49.488;8.480;2023-07-31T14:04:15;7.43;;;2.50;;
41629;SDS011;27322;49.488;8.480;2023-07-31T14:06:42;5.60;;;1.95;;
41629;SDS011;27322;49.488;8.480;2023-07-31T14:09:08;5.68;;;1.98;;
41629;SDS011;27322;49.488;8.480;2023-07-31T14:11:33;8.60;;;2.30;;
41629;SDS011;27322;49.488;8.480;2023-07-31T14:13:59;4.80;;;1.90;;
41629;SDS011;27322;49.488;8.480;2023-07-31T14:16:26;7.45;;;2.20;;
41629;SDS011;27322;49.488;8.480;2023-07-31T14:18:52;6.20;;;2.15;;
41629;SDS011;27322;49.488;8.480;2023-07-31T14:21:18;8.02;;;2.05;;
41629;SDS011;27322;49.488;8.480;2023-07-31T14:23:44;5.10;;;2.40;;
41629;SDS011;27322;49.488;8.480;2023-07-31T14:26:10;8.20;;;2.22;;
41629;SDS011;27322;49.488;8.480;2023-07-31T14:28:35;6.80;;;2.00;;
41629;SDS011;27322;49.488;8.480;2023-07-31T14:31:01;6.75;;;1.98;;
41629;SDS011;27322;49.488;8.480;2023-07-31T14:33:27;5.88;;;2.10;;
41629;SDS011;27322;49.488;8.480;2023-07-31T14:35:52;5.13;;;2.10;;
41629;SDS011;27322;49.488;8.480;2023-07-31T14:38:19;5.10;;;1.85;;
41629;SDS011;27322;49.488;8.480;2023-07-31T14:40:44;4.78;;;1.90;;
41629;SDS011;27322;49.488;8.480;2023-07-31T14:43:10;8.27;;;2.42;;
41629;SDS011;27322;49.488;8.480;2023-07-31T14:45:36;5.75;;;1.90;;
41629;SDS011;27322;49.488;8.480;2023-07-31T14:48:01;4.80;;;1.90;;
41629;SDS011;27322;49.488;8.480;2023-07-31T14:50:27;5.25;;;2.22;;
41629;SDS011;27322;49.488;8.480;2023-07-31T14:52:53;6.13;;;2.40;;
41629;SDS011;27322;49.488;8.480;2023-07-31T14:55:19;5.68;;;2.17;;